This is the latest recevied weather packets stored in our database for station/object YB2YEN-13. If no packets are shown the sender has not sent any weather packets the latest 10 day(s).
| Time | Temp. | Humidity | Pressure | Rain* | Wind** | Luminosity | Snow |
|---|---|---|---|---|---|---|---|
| 1777175235 | 31.67° C | 99% | 978 hPa | - | - | 0 W/m² | - |
| 1777174913 | 31.67° C | 99% | 978 hPa | - | - | 0 W/m² | - |
| 1777174591 | 31.67° C | 98% | 978 hPa | - | - | 0 W/m² | - |
| 1777174269 | 31.67° C | 98% | 978 hPa | - | - | 0 W/m² | - |
| 1777173947 | 31.67° C | 95% | 978 hPa | - | - | 0 W/m² | - |
| 1777173625 | 30.56° C | 99% | 978 hPa | - | - | 0 W/m² | - |
| 1777173303 | 30.56° C | 99% | 978 hPa | - | - | 0 W/m² | - |
| 1777172981 | 31.11° C | 99% | 978 hPa | - | - | 0 W/m² | - |
| 1777172659 | 30.56° C | 99% | 978 hPa | - | - | 0 W/m² | - |
| 1777172337 | 31.11° C | 99% | 978 hPa | - | - | 0 W/m² | - |
| 1777172015 | 31.67° C | 90% | 978 hPa | - | - | 0 W/m² | - |
| 1777171693 | 31.11° C | 98% | 979 hPa | - | - | 0 W/m² | - |
| 1777171371 | 31.67° C | 98% | 979 hPa | - | - | 0 W/m² | - |
| 1777171049 | 30.56° C | 97% | 979 hPa | - | - | 0 W/m² | - |
| 1777170727 | 32.78° C | 83% | 979 hPa | - | - | 0 W/m² | - |
| 1777170405 | 32.78° C | 87% | 979 hPa | - | - | 0 W/m² | - |
| 1777170083 | 31.67° C | 96% | 979 hPa | - | - | 0 W/m² | - |
| 1777169761 | 31.67° C | 90% | 979 hPa | - | - | 0 W/m² | - |
| 1777169439 | 32.78° C | 82% | 979 hPa | - | - | 0 W/m² | - |
| 1777169117 | 32.78° C | 81% | 979 hPa | - | - | 0 W/m² | - |
| 1777168795 | 31.67° C | 90% | 979 hPa | - | - | 0 W/m² | - |
| 1777168473 | 32.78° C | 81% | 979 hPa | - | - | 0 W/m² | - |
| 1777168151 | 32.22° C | 85% | 979 hPa | - | - | 0 W/m² | - |
| 1777167829 | 31.11° C | 91% | 979 hPa | - | - | 0 W/m² | - |
| 1777167507 | 30.56° C | 93% | 979 hPa | - | - | 0 W/m² | - |
* Rain since midnight (hover to see other rain measurements)
** Current wind speed in m/s (hover to see current wind gust speed)